This is the latest recevied weather packets stored in our database for station/object K7AEL. If no packets are shown the sender has not sent any weather packets the latest 10 day(s).
| Time | Temp. | Humidity | Pressure | Rain* | Wind** | Luminosity | Snow |
|---|---|---|---|---|---|---|---|
| 1777840074 | 30.56° C | 23% | 1012 hPa | 0 mm | - | 326 W/m² | - |
| 1777839773 | 30.56° C | 23% | 1011.9 hPa | 0 mm | - | 312 W/m² | - |
| 1777836740 | 29.44° C | 28% | 1012.9 hPa | 0 mm | - | 258 W/m² | - |
| 1777836436 | 29.44° C | 28% | 1013.3 hPa | 0 mm | - | 293 W/m² | - |
| 1777836131 | 29.44° C | 29% | 1013.3 hPa | 0 mm | - | 306 W/m² | - |
| 1777835828 | 28.89° C | 30% | 1013.2 hPa | 0 mm | - | 337 W/m² | - |
| 1777835222 | 28.89° C | 30% | 1013.4 hPa | 0 mm | - | 230 W/m² | - |
| 1777833096 | 27.78° C | 30% | 1013.7 hPa | 0 mm | - | 225 W/m² | - |
| 1777832189 | 27.78° C | 31% | 1014 hPa | 0 mm | - | 239 W/m² | - |
| 1777831886 | 27.78° C | 31% | 1014.1 hPa | 0 mm | - | 221 W/m² | - |
| 1777831583 | 27.78° C | 31% | 1014.3 hPa | 0 mm | - | 224 W/m² | - |
| 1777831281 | 27.78° C | 31% | 1014.2 hPa | 0 mm | - | 232 W/m² | - |
| 1777829157 | 27.22° C | 32% | 1014.5 hPa | 0 mm | - | 273 W/m² | - |
| 1777827339 | 27.22° C | 32% | 1014.9 hPa | 0 mm | - | 284 W/m² | - |
| 1777825823 | 26.67° C | 33% | 1014.8 hPa | 0 mm | - | 241 W/m² | - |
| 1777825218 | 26.67° C | 32% | 1014.9 hPa | 0 mm | - | 216 W/m² | - |
| 1777823397 | 25.56° C | 34% | 1014.9 hPa | 0 mm | - | 197 W/m² | - |
| 1777817340 | 23.33° C | 38% | 1014.5 hPa | 0 mm | - | 81 W/m² | - |
| 1777814916 | 22.78° C | 38% | 1014.2 hPa | 0 mm | - | 43 W/m² | - |
| 1777811282 | 22.22° C | 39% | 1013.6 hPa | 0 mm | - | 0 W/m² | - |
| 1777810676 | 22.78° C | 38% | 1013.8 hPa | 0 mm | - | 0 W/m² | - |
| 1777810069 | 22.78° C | 38% | 1013.8 hPa | 0 mm | - | 0 W/m² | - |
| 1777809464 | 22.78° C | 37% | 1013.9 hPa | 0 mm | - | 0 W/m² | - |
| 1777807649 | 23.33° C | 36% | 1013.6 hPa | 0 mm | - | 0 W/m² | - |
| 1777807346 | 23.89° C | 36% | 1013.9 hPa | 0 mm | - | 0 W/m² | - |
* Rain latest hour (hover to see other rain measurements)
** Current wind speed in m/s (hover to see current wind gust speed)